Terminal Aerodrome Forecast
Issued by NWS Wakefield, VA

Home | Current Version | Previous Version | Text Only | Print | Product List | Glossary On
Versions: 1 2 3 4 5 6 7 8 9 10 11 12 13 14 15 16 17 18
000
FTUS41 KAKQ 272339
TAFRIC
TAF
KRIC 272339Z 2800/2824 18008KT P6SM VCSH SCT120 BKN250
     FM281000 20005KT 4SM BR BKN010 OVC050
     FM281400 22005KT P6SM SCT020 BKN100
     FM281800 18010KT P6SM SCT030 BKN050=

USA.gov is the U.S. government's official web portal to all federal, state and local government web resources and services.